Central Oregon RPC :: BISHOP, CA

liberation: 2021-06-20  06:00     latitude: 37.388826     longitude: -118.423424 78 birds
# LOFT PRING MILES ARRIVAL SPEED ToWin
1 RUETER FAMILY LOFT AU19-CORP-5330 525.736 2021-06-21 11:39:19.749 720.769 00:00:00
2 LUCAS CRAMER AU18-CORP-2247 517.039 2021-06-21 11:28:01.629 715.140 00:09:56
3 AMERICAN LOFT AU19-CORP-4620 495.854 2021-06-21 10:59:35.573 701.515 00:33:14
4 ROCKY TOP AU18-CORP-3334 492.976 2021-06-21 11:52:58.566 668.746 01:33:39
5 ROCKY TOP AU17-OTC-0317 492.976 2021-06-21 12:01:38.594 664.308 01:42:19
6 LUCAS CRAMER AU19-LKC-4674 517.039 2021-06-21 13:55:14.783 640.981 02:37:09
7 TOPIGEONUSA AU19-CORP-4908 500.273 2021-06-21 13:41:31.257 626.251 03:04:22
8 LUCAS CRAMER AU20-ZA-7650 517.039 2021-06-21 17:02:55.590 566.138 05:44:50
9 RUETER FAMILY LOFT AU19-CORP-5331 525.736 2021-06-21 19:31:20.401 527.002 07:52:01
10 LUCAS CRAMER AU20-GUTZ-0219 517.039 2021-06-22 06:29:49.296 474.288 10:56:07
11 RUETER FAMILY LOFT AU19-CORP-5477 525.736 2021-06-22 08:13:39.467 457.507 12:18:43
12 LUCAS CRAMER AU19-CORP-4110 517.039 2021-06-22 07:58:22.102 453.365 12:24:40
13 TOPIGEONUSA AU19-CORP-4991 500.273 2021-06-22 09:11:51.994 423.169 14:19:06
14 ROCKY TOP AU19-CORP-4420 492.976 2021-06-22 09:32:01.269 412.996 14:57:04
15 AMERICAN LOFT AU19-CORP-4746 495.854 2021-06-22 10:00:27.279 409.860 15:18:29
16 AMERICAN LOFT AU18-CORP-2549 495.854 2021-06-22 10:16:21.840 406.820 15:34:23
17 AMERICAN LOFT AU19-CORP-4681 495.854 2021-06-22 17:55:26.681 335.106 23:13:28
AMERICAN LOFT AU15-CORP-3683 0 0000-00-00 00:00:00.000 0.000 00:00:00
AMERICAN LOFT AU16-CORP-7444 0 0000-00-00 00:00:00.000 0.000 00:00:00
AMERICAN LOFT AU16-CORP-7539 0 0000-00-00 00:00:00.000 0.000 00:00:00
AMERICAN LOFT AU16-CORP-7557 0 0000-00-00 00:00:00.000 0.000 00:00:00
AMERICAN LOFT AU17-CORP-0078 0 0000-00-00 00:00:00.000 0.000 00:00:00
AMERICAN LOFT AU17-CORP-0096 0 0000-00-00 00:00:00.000 0.000 00:00:00
AMERICAN LOFT AU19-CORP-4643 0 0000-00-00 00:00:00.000 0.000 00:00:00
AMERICAN LOFT AU19-CORP-4711 0 0000-00-00 00:00:00.000 0.000 00:00:00
LUCAS CRAMER AU19-LKC-4661 0 0000-00-00 00:00:00.000 0.000 00:00:00
LUCAS CRAMER AU19-LKC-4663 0 0000-00-00 00:00:00.000 0.000 00:00:00
LUCAS CRAMER AU20-ARPU-30169 0 0000-00-00 00:00:00.000 0.000 00:00:00
LUCAS CRAMER AU20-ARPU-56021 0 0000-00-00 00:00:00.000 0.000 00:00:00
LUCAS CRAMER AU20-CALA-0003 0 0000-00-00 00:00:00.000 0.000 00:00:00
LUCAS CRAMER AU20-CORP-4245 0 0000-00-00 00:00:00.000 0.000 00:00:00
LUCAS CRAMER AU20-GWC-0059 0 0000-00-00 00:00:00.000 0.000 00:00:00
LUCAS CRAMER AU20-KFLY-2005 0 0000-00-00 00:00:00.000 0.000 00:00:00
LUCAS CRAMER AU20-LIAN-2034 0 0000-00-00 00:00:00.000 0.000 00:00:00
LUCAS CRAMER AU20-NEM-0634 0 0000-00-00 00:00:00.000 0.000 00:00:00
LUCAS CRAMER AU20-PLAT-18413 0 0000-00-00 00:00:00.000 0.000 00:00:00
LUCAS CRAMER AU20-PUEB-20507 0 0000-00-00 00:00:00.000 0.000 00:00:00
LUCAS CRAMER AU20-RAC-2818 0 0000-00-00 00:00:00.000 0.000 00:00:00
LUCAS CRAMER AU20-TBW-20076 0 0000-00-00 00:00:00.000 0.000 00:00:00
LUCAS CRAMER AU20-TBW-20080 0 0000-00-00 00:00:00.000 0.000 00:00:00
LUCAS CRAMER AU20-WPC-1528 0 0000-00-00 00:00:00.000 0.000 00:00:00
LUCAS CRAMER CU20-CRPU-11568 0 0000-00-00 00:00:00.000 0.000 00:00:00
ROCKY TOP AU18-CORP-3335 0 0000-00-00 00:00:00.000 0.000 00:00:00
ROCKY TOP AU18-CORP-3385 0 0000-00-00 00:00:00.000 0.000 00:00:00
ROCKY TOP AU19-ARPU-29012 0 0000-00-00 00:00:00.000 0.000 00:00:00
RUETER FAMILY LOFT AU18-CORP-2684 0 0000-00-00 00:00:00.000 0.000 00:00:00
RUETER FAMILY LOFT AU18-CORP-2744 0 0000-00-00 00:00:00.000 0.000 00:00:00
RUETER FAMILY LOFT AU19-CORP-5250 0 0000-00-00 00:00:00.000 0.000 00:00:00
RUETER FAMILY LOFT AU19-CORP-5310 0 0000-00-00 00:00:00.000 0.000 00:00:00
RUETER FAMILY LOFT AU19-CORP-5344 0 0000-00-00 00:00:00.000 0.000 00:00:00
RUETER FAMILY LOFT AU19-CORP-5377 0 0000-00-00 00:00:00.000 0.000 00:00:00
RUETER FAMILY LOFT AU19-CORP-5413 0 0000-00-00 00:00:00.000 0.000 00:00:00
RUETER FAMILY LOFT AU19-CORP-5438 0 0000-00-00 00:00:00.000 0.000 00:00:00
RUETER FAMILY LOFT AU19-CORP-5447 0 0000-00-00 00:00:00.000 0.000 00:00:00
RUETER FAMILY LOFT AU19-CORP-5455 0 0000-00-00 00:00:00.000 0.000 00:00:00
RUETER FAMILY LOFT AU20-OTC-110 0 0000-00-00 00:00:00.000 0.000 00:00:00
STEELE LOFT AU15-CORP-3873 0 0000-00-00 00:00:00.000 0.000 00:00:00
STEELE LOFT AU16-CORP-7939 0 0000-00-00 00:00:00.000 0.000 00:00:00
STEELE LOFT AU16-CORP-8082 0 0000-00-00 00:00:00.000 0.000 00:00:00
STEELE LOFT AU17-PNW-5230 0 0000-00-00 00:00:00.000 0.000 00:00:00
STEELE LOFT AU18-CORP-4299 0 0000-00-00 00:00:00.000 0.000 00:00:00
STEELE LOFT AU19-AVI-19522 0 0000-00-00 00:00:00.000 0.000 00:00:00
STEELE LOFT AU19-CORP-4019 0 0000-00-00 00:00:00.000 0.000 00:00:00
STEELE LOFT AU19-CORP-4029 0 0000-00-00 00:00:00.000 0.000 00:00:00
STEELE LOFT AU19-CORP-4031 0 0000-00-00 00:00:00.000 0.000 00:00:00
STEELE LOFT AU19-CORP-4044 0 0000-00-00 00:00:00.000 0.000 00:00:00
STEELE LOFT AU19-JEDD-1973 0 0000-00-00 00:00:00.000 0.000 00:00:00
TIM GRAVES AU17-FHI-0202 0 0000-00-00 00:00:00.000 0.000 00:00:00
TIM GRAVES AU20-CORP-4720 0 0000-00-00 00:00:00.000 0.000 00:00:00
TOPIGEONUSA AU14-CORP-1078 0 0000-00-00 00:00:00.000 0.000 00:00:00
TOPIGEONUSA AU16-CORP-7994 0 0000-00-00 00:00:00.000 0.000 00:00:00
TOPIGEONUSA AU18-CORP-4253 0 0000-00-00 00:00:00.000 0.000 00:00:00
TOPIGEONUSA AU19-CORP-4907 0 0000-00-00 00:00:00.000 0.000 00:00:00
TOPIGEONUSA AU19-CORP-4912 0 0000-00-00 00:00:00.000 0.000 00:00:00
TOPIGEONUSA AU19-CORP-4913 0 0000-00-00 00:00:00.000 0.000 00:00:00
TOPIGEONUSA AU19-CORP-5124 0 0000-00-00 00:00:00.000 0.000 00:00:00
TOPIGEONUSA AU19-CORP-5134 0 0000-00-00 00:00:00.000 0.000 00:00:00
TOPIGEONUSA AU19-CORP-5151 0 0000-00-00 00:00:00.000 0.000 00:00:00